Time;durP1;ratioP1;P1;durP2;ratioP2;P2;SDS_P1;SDS_P2;PMS_P1;PMS_P2;Temp;Humidity;BMP_temperature;BMP_pressure;BME280_temperature;BME280_humidity;BME280_pressure;Samples;Min_cycle;Max_cycle;Signal;HPM_P1;HPM_P2
2021/07/06 00:00:12;;;;;;;;;3.00;3.00;;;;;-146.80;100.00;64830.25;5076464;28;45584;-64
2021/07/06 00:02:39;;;;;;;;;4.25;3.75;;;;;-146.80;100.00;64830.25;5077113;27;45527;-65
2021/07/06 00:05:05;;;;;;;;;4.75;2.25;;;;;-146.80;100.00;64830.25;5077225;28;45395;-63
2021/07/06 00:07:31;;;;;;;;;2.50;2.00;;;;;-146.80;100.00;64830.25;5077417;28;45320;-65
2021/07/06 00:09:58;;;;;;;;;3.00;2.00;;;;;-146.80;100.00;64830.25;5077287;27;45388;-64
2021/07/06 00:12:24;;;;;;;;;4.00;4.00;;;;;-146.80;100.00;64830.25;5076810;27;45655;-64
2021/07/06 00:14:49;;;;;;;;;4.25;4.25;;;;;-146.80;100.00;64830.25;5076846;28;45345;-67
2021/07/06 00:17:15;;;;;;;;;2.00;2.00;;;;;-146.80;100.00;64830.25;5077009;28;45373;-65
2021/07/06 00:19:40;;;;;;;;;2.75;2.00;;;;;-146.80;100.00;64830.25;5077355;28;45302;-65
2021/07/06 00:22:06;;;;;;;;;2.75;2.75;;;;;-146.80;100.00;64830.25;5076968;28;46185;-65
2021/07/06 00:24:33;;;;;;;;;2.00;2.00;;;;;-146.80;100.00;64830.25;5077426;28;45527;-66
2021/07/06 00:26:58;;;;;;;;;5.25;2.50;;;;;-146.80;100.00;64830.25;5077004;28;45262;-65
2021/07/06 00:29:23;;;;;;;;;1.00;1.00;;;;;-146.80;100.00;64830.25;5077109;28;45254;-66
2021/07/06 00:31:49;;;;;;;;;3.00;1.75;;;;;-146.80;100.00;64830.25;5076321;28;46022;-63
2021/07/06 00:34:14;;;;;;;;;2.00;2.00;;;;;-146.80;100.00;64830.25;5076638;28;45382;-62
2021/07/06 00:36:40;;;;;;;;;1.00;1.00;;;;;-146.80;100.00;64830.25;5075545;28;45229;-65
2021/07/06 00:39:05;;;;;;;;;1.50;1.00;;;;;-146.80;100.00;64830.25;5077372;28;45259;-64
2021/07/06 00:41:33;;;;;;;;;2.00;1.00;;;;;-146.80;100.00;64830.25;5074643;28;48016;-57
2021/07/06 00:43:59;;;;;;;;;4.50;1.00;;;;;-146.80;100.00;64830.25;5076711;28;45523;-63
2021/07/06 00:46:25;;;;;;;;;3.00;1.00;;;;;-146.80;100.00;64830.25;5074805;27;45439;-66
2021/07/06 00:48:50;;;;;;;;;2.00;2.00;;;;;-146.80;100.00;64830.25;5076682;28;45617;-62
2021/07/06 00:51:15;;;;;;;;;3.00;2.00;;;;;-146.80;100.00;64830.25;5076516;28;45456;-65
2021/07/06 00:53:41;;;;;;;;;1.25;1.25;;;;;-146.80;100.00;64830.25;5075134;28;45429;-62
2021/07/06 00:56:07;;;;;;;;;1.00;1.00;;;;;-146.80;100.00;64830.25;5076496;27;45342;-62
2021/07/06 00:58:33;;;;;;;;;1.00;1.00;;;;;-146.80;100.00;64830.25;5076965;28;45335;-62
2021/07/06 01:00:58;;;;;;;;;1.25;1.25;;;;;-146.80;100.00;64830.25;5076246;28;45984;-63
2021/07/06 01:03:24;;;;;;;;;1.00;1.00;;;;;-146.80;100.00;64830.25;5076169;28;45243;-64
2021/07/06 01:05:49;;;;;;;;;0.75;0.75;;;;;-146.80;100.00;64830.25;5076277;28;45390;-61
2021/07/06 01:08:15;;;;;;;;;1.00;1.00;;;;;-146.80;100.00;64830.25;5076742;28;45234;-63
2021/07/06 01:10:41;;;;;;;;;0.75;0.75;;;;;-146.80;100.00;64830.25;5076374;27;46341;-64
2021/07/06 01:13:08;;;;;;;;;1.00;1.00;;;;;-146.80;100.00;64830.25;5076378;27;45424;-65
2021/07/06 01:15:34;;;;;;;;;3.00;1.00;;;;;-146.80;100.00;64830.25;5076288;28;45458;-62
2021/07/06 01:18:09;;;;;;;;;1.00;1.00;;;;;-146.80;100.00;64830.25;5076396;27;45323;-59
2021/07/06 01:20:38;;;;;;;;;1.00;1.00;;;;;-146.80;100.00;64830.25;5075059;28;45731;-62
2021/07/06 01:23:06;;;;;;;;;1.00;1.00;;;;;-146.80;100.00;64830.25;5076418;28;45272;-60
2021/07/06 01:25:33;;;;;;;;;1.00;1.00;;;;;-146.80;100.00;64830.25;5076124;28;45333;-57
2021/07/06 01:28:00;;;;;;;;;0.00;0.00;;;;;-146.80;100.00;64830.25;5076243;28;45569;-62
2021/07/06 01:30:26;;;;;;;;;0.25;0.25;;;;;-146.80;100.00;64830.25;5075861;27;46697;-58
2021/07/06 01:32:51;;;;;;;;;1.00;1.00;;;;;-146.80;100.00;64830.25;5074595;28;45425;-62
2021/07/06 01:35:18;;;;;;;;;0.75;0.00;;;;;-146.80;100.00;64830.25;5076058;28;45336;-62
2021/07/06 01:37:44;;;;;;;;;1.00;1.00;;;;;-146.80;100.00;64830.25;5076273;28;45324;-61
2021/07/06 01:40:15;;;;;;;;;2.75;1.00;;;;;-146.80;100.00;64830.25;5074796;28;45244;-66
2021/07/06 01:42:42;;;;;;;;;0.00;0.00;;;;;-146.80;100.00;64830.25;5075873;28;45329;-62
2021/07/06 01:45:10;;;;;;;;;1.00;1.00;;;;;-146.80;100.00;64830.25;5076150;28;45469;-62
2021/07/06 01:47:43;;;;;;;;;0.00;0.00;;;;;-146.80;100.00;64830.25;5076255;27;45245;-64
2021/07/06 01:50:14;;;;;;;;;1.00;1.00;;;;;-146.80;100.00;64830.25;5075818;28;45348;-58
2021/07/06 01:52:43;;;;;;;;;0.00;0.00;;;;;-146.80;100.00;64830.25;5076828;28;45413;-59
2021/07/06 01:55:13;;;;;;;;;0.00;0.00;;;;;-146.80;100.00;64830.25;5082726;28;45385;-58
2021/07/06 01:57:40;;;;;;;;;0.00;0.00;;;;;-146.80;100.00;64830.25;5082972;27;45730;-60
2021/07/06 02:00:12;;;;;;;;;0.00;0.00;;;;;-146.80;100.00;64830.25;5082930;28;46114;-62
2021/07/06 02:02:38;;;;;;;;;0.25;0.25;;;;;-146.80;100.00;64830.25;5081056;28;45413;-63
2021/07/06 02:05:18;;;;;;;;;0.00;0.00;;;;;-146.80;100.00;64830.25;5082422;28;45318;-63
2021/07/06 02:07:45;;;;;;;;;1.00;0.00;;;;;-146.80;100.00;64830.25;5081055;28;45572;-64
2021/07/06 02:10:12;;;;;;;;;0.00;0.00;;;;;-146.80;100.00;64830.25;5082162;28;46100;-63
2021/07/06 02:12:38;;;;;;;;;0.00;0.00;;;;;-146.80;100.00;64830.25;5082507;28;45479;-64
2021/07/06 02:15:05;;;;;;;;;1.00;0.00;;;;;-146.80;100.00;64830.25;5082430;28;45335;-64
2021/07/06 02:17:30;;;;;;;;;0.25;0.25;;;;;-146.80;100.00;64830.25;5082416;28;45405;-63
2021/07/06 02:19:56;;;;;;;;;0.00;0.00;;;;;-146.80;100.00;64830.25;5081889;28;45475;-66
2021/07/06 02:22:21;;;;;;;;;0.00;0.00;;;;;-146.80;100.00;64830.25;5082069;27;45322;-62
2021/07/06 02:24:46;;;;;;;;;0.00;0.00;;;;;-146.80;100.00;64830.25;5082301;27;45266;-63
2021/07/06 02:27:12;;;;;;;;;0.00;0.00;;;;;-146.80;100.00;64830.25;5082510;28;45394;-63
2021/07/06 02:29:38;;;;;;;;;0.75;0.00;;;;;-146.80;100.00;64830.25;5082319;28;45392;-64
2021/07/06 02:32:04;;;;;;;;;1.00;0.00;;;;;-146.80;100.00;64830.25;5081872;28;45325;-64
2021/07/06 02:34:30;;;;;;;;;0.00;0.00;;;;;-146.80;100.00;64830.25;5082020;28;45441;-64
2021/07/06 02:36:55;;;;;;;;;0.00;0.00;;;;;-146.80;100.00;64830.25;5082302;28;45283;-62
2021/07/06 02:39:21;;;;;;;;;0.00;0.00;;;;;-146.80;100.00;64830.25;5081949;27;46130;-62
2021/07/06 02:41:46;;;;;;;;;0.00;0.00;;;;;-146.80;100.00;64830.25;5082024;28;45275;-64
2021/07/06 02:44:11;;;;;;;;;0.00;0.00;;;;;-146.80;100.00;64830.25;5082488;28;45533;-62
2021/07/06 02:46:37;;;;;;;;;0.00;0.00;;;;;-146.80;100.00;64830.25;5082453;28;45464;-64
2021/07/06 02:49:02;;;;;;;;;0.00;0.00;;;;;-146.80;100.00;64830.25;5081812;28;46184;-64
2021/07/06 02:51:28;;;;;;;;;0.00;0.00;;;;;-146.80;100.00;64830.25;5081807;27;45395;-63
2021/07/06 02:53:53;;;;;;;;;0.75;0.00;;;;;-146.80;100.00;64830.25;5080707;28;45413;-61
2021/07/06 02:56:18;;;;;;;;;0.00;0.00;;;;;-146.80;100.00;64830.25;5082183;27;45382;-63
2021/07/06 02:58:44;;;;;;;;;2.00;0.00;;;;;-146.80;100.00;64830.25;5081641;28;45425;-65
2021/07/06 03:01:09;;;;;;;;;0.00;0.00;;;;;-146.80;100.00;64830.25;5081971;28;45349;-62
2021/07/06 03:03:35;;;;;;;;;1.00;1.00;;;;;-146.80;100.00;64830.25;5081891;28;45398;-62
2021/07/06 03:06:00;;;;;;;;;0.00;0.00;;;;;-146.80;100.00;64830.25;5077931;28;45304;-62
2021/07/06 03:08:29;;;;;;;;;0.00;0.00;;;;;-146.80;100.00;64830.25;5078281;28;46206;-64
2021/07/06 03:10:55;;;;;;;;;0.00;0.00;;;;;-146.80;100.00;64830.25;5078144;28;45390;-61
2021/07/06 03:13:20;;;;;;;;;0.00;0.00;;;;;-146.80;100.00;64830.25;5078400;28;45529;-63
2021/07/06 03:15:45;;;;;;;;;2.50;0.00;;;;;-146.80;100.00;64830.25;5078636;28;45523;-63
2021/07/06 03:18:11;;;;;;;;;0.00;0.00;;;;;-146.80;100.00;64830.25;5078251;28;45459;-63
2021/07/06 03:20:36;;;;;;;;;1.00;0.50;;;;;-146.80;100.00;64830.25;5077787;28;45454;-62
2021/07/06 03:23:02;;;;;;;;;1.00;0.00;;;;;-146.80;100.00;64830.25;5078022;28;45597;-62
2021/07/06 03:25:28;;;;;;;;;1.50;0.00;;;;;-146.80;100.00;64830.25;5078334;27;45649;-63
2021/07/06 03:27:55;;;;;;;;;0.50;0.50;;;;;-146.80;100.00;64830.25;5076525;28;48175;-63
2021/07/06 03:30:25;;;;;;;;;0.50;0.00;;;;;-146.80;100.00;64830.25;5077882;28;45323;-64
2021/07/06 03:32:53;;;;;;;;;0.00;0.00;;;;;-146.80;100.00;64830.25;5076567;28;45527;-63
2021/07/06 03:35:19;;;;;;;;;0.25;0.25;;;;;-146.80;100.00;64830.25;5076818;28;45394;-62
2021/07/06 03:37:45;;;;;;;;;0.75;0.75;;;;;-146.80;100.00;64830.25;5077779;27;46449;-61
2021/07/06 03:40:11;;;;;;;;;1.00;0.50;;;;;-146.80;100.00;64830.25;5078136;27;45360;-63
2021/07/06 03:42:37;;;;;;;;;0.00;0.00;;;;;-146.80;100.00;64830.25;5077874;28;45472;-64
2021/07/06 03:45:05;;;;;;;;;0.50;0.00;;;;;-146.80;100.00;64830.25;5076527;28;45198;-62
2021/07/06 03:47:31;;;;;;;;;0.75;0.00;;;;;-146.80;100.00;64830.25;5077417;28;47209;-63
2021/07/06 03:49:56;;;;;;;;;2.00;0.00;;;;;-146.80;100.00;64830.25;5076248;28;45613;-63
2021/07/06 03:52:22;;;;;;;;;0.00;0.00;;;;;-146.80;100.00;64830.25;5077912;27;45543;-62
2021/07/06 03:54:47;;;;;;;;;2.00;0.25;;;;;-146.80;100.00;64830.25;5077838;28;45393;-60
2021/07/06 03:57:12;;;;;;;;;0.25;0.25;;;;;-146.80;100.00;64830.25;5076499;28;48145;-60
2021/07/06 03:59:38;;;;;;;;;1.00;1.00;;;;;-146.80;100.00;64830.25;5076245;28;45813;-61
2021/07/06 04:02:03;;;;;;;;;1.50;0.25;;;;;-146.80;100.00;64830.25;5077486;28;45472;-63
2021/07/06 04:04:29;;;;;;;;;2.25;1.00;;;;;-146.80;100.00;64830.25;5077769;27;45641;-62
2021/07/06 04:06:54;;;;;;;;;1.00;1.00;;;;;-146.80;100.00;64830.25;5077094;28;45569;-61
2021/07/06 04:09:20;;;;;;;;;0.00;0.00;;;;;-146.80;100.00;64830.25;5077371;27;45382;-61
2021/07/06 04:11:45;;;;;;;;;1.00;0.00;;;;;-146.80;100.00;64830.25;5077930;28;45395;-63
2021/07/06 04:14:11;;;;;;;;;1.00;0.75;;;;;-146.80;100.00;64830.25;5077881;28;45577;-60
2021/07/06 04:16:38;;;;;;;;;2.00;0.50;;;;;-146.80;100.00;64830.25;5074500;28;45231;-59
2021/07/06 04:19:06;;;;;;;;;2.00;0.00;;;;;-146.80;100.00;64830.25;5077161;28;45339;-57
2021/07/06 04:21:32;;;;;;;;;0.00;0.00;;;;;-146.80;100.00;64830.25;5077199;28;46006;-58
2021/07/06 04:23:57;;;;;;;;;0.00;0.00;;;;;-146.80;100.00;64830.25;5077253;28;45475;-62
2021/07/06 04:26:23;;;;;;;;;1.00;1.00;;;;;-146.80;100.00;64830.25;5075367;28;46704;-52
2021/07/06 04:28:48;;;;;;;;;0.50;0.50;;;;;-146.80;100.00;64830.25;5076973;28;45453;-58
2021/07/06 04:31:13;;;;;;;;;1.75;0.25;;;;;-146.80;100.00;64830.25;5077418;28;45243;-61
2021/07/06 04:33:39;;;;;;;;;2.00;0.25;;;;;-146.80;100.00;64830.25;5077214;28;45345;-61
2021/07/06 04:36:04;;;;;;;;;0.75;0.00;;;;;-146.80;100.00;64830.25;5075508;28;47227;-62
2021/07/06 04:38:30;;;;;;;;;1.00;0.75;;;;;-146.80;100.00;64830.25;5075340;28;45357;-61
2021/07/06 04:40:55;;;;;;;;;0.50;0.00;;;;;-146.80;100.00;64830.25;5076773;28;45350;-61
2021/07/06 04:43:22;;;;;;;;;1.50;1.00;;;;;-146.80;100.00;64830.25;5076557;28;45350;-61
2021/07/06 04:45:48;;;;;;;;;0.00;0.00;;;;;-146.80;100.00;64830.25;5076755;28;46440;-59
2021/07/06 04:48:13;;;;;;;;;2.00;1.00;;;;;-146.80;100.00;64830.25;5076979;28;45254;-65
2021/07/06 04:50:39;;;;;;;;;1.50;0.00;;;;;-146.80;100.00;64830.25;5075520;28;45369;-63
2021/07/06 04:53:05;;;;;;;;;0.00;0.00;;;;;-146.80;100.00;64830.25;5076883;28;45390;-65
2021/07/06 04:55:31;;;;;;;;;3.00;1.00;;;;;-146.80;100.00;64830.25;5076304;28;46296;-64
2021/07/06 04:57:57;;;;;;;;;3.00;1.00;;;;;-146.80;100.00;64830.25;5076623;28;45368;-60
2021/07/06 05:00:23;;;;;;;;;1.75;1.00;;;;;-146.80;100.00;64830.25;5076857;28;45343;-63
2021/07/06 05:02:49;;;;;;;;;1.00;0.25;;;;;-146.80;100.00;64830.25;5077136;28;45547;-61
2021/07/06 05:05:14;;;;;;;;;5.25;0.25;;;;;-146.80;100.00;64830.25;5076756;27;45339;-64
2021/07/06 05:07:40;;;;;;;;;2.75;1.00;;;;;-146.80;100.00;64830.25;5076141;28;45387;-64
2021/07/06 05:10:10;;;;;;;;;0.50;0.50;;;;;-146.80;100.00;64830.25;5076790;27;45346;-65
2021/07/06 05:12:35;;;;;;;;;0.00;0.00;;;;;-146.80;100.00;64830.25;5075430;28;45279;-64
2021/07/06 05:15:03;;;;;;;;;1.25;0.00;;;;;-146.80;100.00;64830.25;5075999;28;45455;-63
2021/07/06 05:17:28;;;;;;;;;0.75;0.00;;;;;-146.80;100.00;64830.25;5076104;27;45410;-62
2021/07/06 05:19:54;;;;;;;;;1.75;1.00;;;;;-146.80;100.00;64830.25;5074967;28;45860;-62
2021/07/06 05:22:21;;;;;;;;;3.25;1.00;;;;;-146.80;100.00;64830.25;5076636;28;45312;-62
2021/07/06 05:24:47;;;;;;;;;2.00;1.00;;;;;-146.80;100.00;64830.25;5076209;28;45898;-64
2021/07/06 05:27:12;;;;;;;;;2.75;1.25;;;;;-146.80;100.00;64830.25;5075648;28;45241;-64
2021/07/06 05:29:38;;;;;;;;;0.75;0.75;;;;;-146.80;100.00;64830.25;5076072;28;45380;-64
2021/07/06 05:32:03;;;;;;;;;3.50;1.25;;;;;-146.80;100.00;64830.25;5076274;27;45215;-62
2021/07/06 05:34:29;;;;;;;;;0.25;0.00;;;;;-146.80;100.00;64830.25;5076016;28;46286;-62
2021/07/06 05:36:54;;;;;;;;;1.00;1.00;;;;;-146.80;100.00;64830.25;5076036;27;45369;-62
2021/07/06 05:39:22;;;;;;;;;0.25;0.25;;;;;-146.80;100.00;64830.25;5076207;27;45329;-65
2021/07/06 05:41:48;;;;;;;;;1.00;1.00;;;;;-146.80;100.00;64830.25;5076494;28;45570;-58
2021/07/06 05:44:15;;;;;;;;;1.25;1.25;;;;;-146.80;100.00;64830.25;5075594;27;46034;-65
2021/07/06 05:46:40;;;;;;;;;2.25;2.00;;;;;-146.80;100.00;64830.25;5075314;28;45408;-64
2021/07/06 05:49:06;;;;;;;;;2.00;2.00;;;;;-146.80;100.00;64830.25;5075875;28;45364;-64
2021/07/06 05:51:31;;;;;;;;;4.00;1.50;;;;;-146.80;100.00;64830.25;5076266;28;45478;-65
2021/07/06 05:53:57;;;;;;;;;4.50;2.00;;;;;-146.80;100.00;64830.25;5074306;28;46877;-63
2021/07/06 05:56:22;;;;;;;;;2.25;1.00;;;;;-146.80;100.00;64830.25;5075481;27;45384;-63
2021/07/06 05:58:49;;;;;;;;;1.50;1.00;;;;;-146.80;100.00;64830.25;5075926;28;45438;-62
2021/07/06 06:01:15;;;;;;;;;1.00;1.00;;;;;-146.80;100.00;64830.25;5075968;28;45504;-61
2021/07/06 06:03:40;;;;;;;;;2.50;2.00;;;;;-146.80;100.00;64830.25;5075507;28;47230;-63
2021/07/06 06:06:07;;;;;;;;;2.75;2.00;;;;;-146.80;100.00;64830.25;5075326;27;45216;-63
2021/07/06 06:08:33;;;;;;;;;1.00;1.00;;;;;-146.80;100.00;64830.25;5057645;28;45362;-63
2021/07/06 06:10:58;;;;;;;;;2.50;0.75;;;;;-146.80;100.00;64830.25;5075550;28;45498;-64
2021/07/06 06:13:23;;;;;;;;;2.75;2.00;;;;;-146.80;100.00;64830.25;5075286;28;45478;-64
2021/07/06 06:15:49;;;;;;;;;1.50;1.25;;;;;-146.80;100.00;64830.25;5075800;28;45328;-65
2021/07/06 06:18:14;;;;;;;;;5.75;1.75;;;;;-146.80;100.00;64830.25;5075374;28;45270;-61
2021/07/06 06:20:40;;;;;;;;;2.25;2.25;;;;;-146.80;100.00;64830.25;5075692;28;45358;-61
2021/07/06 06:23:05;;;;;;;;;1.25;1.00;;;;;-146.80;100.00;64830.25;5075566;27;46185;-59
2021/07/06 06:25:31;;;;;;;;;3.75;1.25;;;;;-146.80;100.00;64830.25;5075278;28;45424;-60
2021/07/06 06:27:58;;;;;;;;;3.00;1.50;;;;;-146.80;100.00;64830.25;5075070;28;45274;-63
2021/07/06 06:30:23;;;;;;;;;2.75;2.00;;;;;-146.80;100.00;64830.25;5073794;28;45180;-59
2021/07/06 06:32:51;;;;;;;;;2.00;2.00;;;;;-146.80;100.00;64830.25;5075349;28;46048;-65
2021/07/06 06:35:16;;;;;;;;;2.75;2.00;;;;;-146.80;100.00;64830.25;5074802;28;45457;-66
2021/07/06 06:37:42;;;;;;;;;3.50;2.00;;;;;-146.80;100.00;64830.25;5073864;28;45448;-65
2021/07/06 06:40:08;;;;;;;;;3.50;1.00;;;;;-146.80;100.00;64830.25;5076546;28;45469;-66
2021/07/06 06:42:34;;;;;;;;;5.50;2.00;;;;;-146.80;100.00;64830.25;5078138;28;46698;-66
2021/07/06 06:45:00;;;;;;;;;2.25;1.25;;;;;-146.80;100.00;64830.25;5076822;28;45405;-65
2021/07/06 06:47:26;;;;;;;;;3.00;2.00;;;;;-146.80;100.00;64830.25;5076796;28;45437;-65
2021/07/06 06:49:51;;;;;;;;;2.00;2.00;;;;;-146.80;100.00;64830.25;5079151;28;45487;-65
2021/07/06 06:52:17;;;;;;;;;1.50;0.25;;;;;-146.80;100.00;64830.25;5076990;28;46273;-66
2021/07/06 06:54:42;;;;;;;;;7.75;2.00;;;;;-146.80;100.00;64830.25;5078189;28;45329;-65
2021/07/06 06:57:08;;;;;;;;;2.00;2.00;;;;;-146.80;100.00;64830.25;5078456;28;45729;-65
2021/07/06 06:59:33;;;;;;;;;2.75;2.50;;;;;-146.80;100.00;64830.25;5077253;28;45315;-63
2021/07/06 07:02:17;;;;;;;;;5.25;1.50;;;;;-146.80;100.00;64830.25;5078431;28;45769;-66
2021/07/06 07:04:52;;;;;;;;;3.00;2.75;;;;;-146.80;100.00;64830.25;5078020;28;45344;-66
2021/07/06 07:07:19;;;;;;;;;3.25;3.25;;;;;-146.80;100.00;64830.25;5078164;28;45376;-64
2021/07/06 07:09:45;;;;;;;;;2.75;2.00;;;;;-146.80;100.00;64830.25;5076803;28;45270;-65
2021/07/06 07:12:11;;;;;;;;;3.25;2.75;;;;;-146.80;100.00;64830.25;5077794;28;46146;-64
2021/07/06 07:14:38;;;;;;;;;3.00;2.00;;;;;-146.80;100.00;64830.25;5077940;28;45486;-65
2021/07/06 07:17:04;;;;;;;;;4.75;3.00;;;;;-146.80;100.00;64830.25;5077968;28;45344;-65
2021/07/06 07:19:30;;;;;;;;;5.25;2.00;;;;;-146.80;100.00;64830.25;5078028;28;45381;-63
2021/07/06 07:21:56;;;;;;;;;3.25;2.00;;;;;-146.80;100.00;64830.25;5076775;28;45416;-63
2021/07/06 07:24:21;;;;;;;;;2.25;2.00;;;;;-146.80;100.00;64830.25;5078078;28;45536;-64
2021/07/06 07:26:47;;;;;;;;;6.00;3.00;;;;;-146.80;100.00;64830.25;5077613;28;45241;-64
2021/07/06 07:29:13;;;;;;;;;3.75;2.50;;;;;-146.80;100.00;64830.25;5076602;28;45191;-64
2021/07/06 07:31:38;;;;;;;;;5.25;3.00;;;;;-146.80;100.00;64830.25;5076271;28;47250;-63
2021/07/06 07:34:03;;;;;;;;;3.00;3.00;;;;;-146.80;100.00;64830.25;5077914;28;45322;-64
2021/07/06 07:36:32;;;;;;;;;5.75;2.00;;;;;-146.80;100.00;64830.25;5077882;28;45334;-65
2021/07/06 07:38:58;;;;;;;;;2.50;1.75;;;;;-146.80;100.00;64830.25;5077543;28;45634;-65
2021/07/06 07:41:23;;;;;;;;;4.25;2.75;;;;;-146.80;100.00;64830.25;5059297;28;46649;-66
2021/07/06 07:43:54;;;;;;;;;6.25;3.00;;;;;-146.80;100.00;64830.25;5077357;28;45447;-65
2021/07/06 07:46:24;;;;;;;;;6.75;4.00;;;;;-146.80;100.00;64830.25;5076264;28;45251;-64
2021/07/06 07:48:49;;;;;;;;;4.00;3.00;;;;;-146.80;100.00;64830.25;5077832;28;45325;-65
2021/07/06 07:51:16;;;;;;;;;6.00;3.00;;;;;-146.80;100.00;64830.25;5076964;28;46258;-61
2021/07/06 07:53:42;;;;;;;;;5.00;3.75;;;;;-146.80;100.00;64830.25;5077389;28;45568;-63
2021/07/06 07:56:08;;;;;;;;;7.50;3.00;;;;;-146.80;100.00;64830.25;5077703;28;45291;-65
2021/07/06 07:58:33;;;;;;;;;6.50;5.25;;;;;-146.80;100.00;64830.25;5076482;28;45350;-62
2021/07/06 08:00:59;;;;;;;;;2.75;2.75;;;;;-146.80;100.00;64830.25;5077527;28;46009;-67
2021/07/06 08:03:24;;;;;;;;;8.00;5.00;;;;;-146.80;100.00;64830.25;5077728;28;45258;-61
2021/07/06 08:05:49;;;;;;;;;2.25;2.25;;;;;-146.80;100.00;64830.25;5077468;28;45338;-64
2021/07/06 08:08:15;;;;;;;;;4.00;2.00;;;;;-146.80;100.00;64830.25;5059482;28;45241;-67
2021/07/06 08:10:41;;;;;;;;;5.00;2.00;;;;;-146.80;100.00;64830.25;5076295;28;47307;-64
2021/07/06 08:13:09;;;;;;;;;4.25;1.75;;;;;-146.80;100.00;64830.25;5077283;27;45452;-59
2021/07/06 08:15:34;;;;;;;;;5.25;3.50;;;;;-146.80;100.00;64830.25;5077450;28;45446;-59
2021/07/06 08:18:00;;;;;;;;;4.00;2.50;;;;;-146.80;100.00;64830.25;5075960;28;45492;-63
2021/07/06 08:20:25;;;;;;;;;4.50;3.75;;;;;-146.80;100.00;64830.25;5076079;28;45905;-61
2021/07/06 08:22:55;;;;;;;;;4.75;2.00;;;;;-146.80;100.00;64830.25;5075704;28;45539;-60
2021/07/06 08:25:22;;;;;;;;;2.00;2.00;;;;;-146.80;100.00;64830.25;5077224;28;45235;-64
2021/07/06 08:27:48;;;;;;;;;5.50;4.00;;;;;-146.80;100.00;64830.25;5075602;28;45314;-65
2021/07/06 08:30:13;;;;;;;;;5.25;3.00;;;;;-146.80;100.00;64830.25;5075296;28;48290;-62
2021/07/06 08:32:39;;;;;;;;;4.25;3.00;;;;;-146.80;100.00;64830.25;5076851;28;45478;-64
2021/07/06 08:35:08;;;;;;;;;4.50;3.00;;;;;-146.80;100.00;64830.25;5075706;28;45470;-65
2021/07/06 08:37:33;;;;;;;;;6.75;4.00;;;;;-146.80;100.00;64830.25;5077101;28;45512;-63
2021/07/06 08:39:59;;;;;;;;;7.00;3.50;;;;;-146.80;100.00;64830.25;5076902;27;46110;-65
2021/07/06 08:42:26;;;;;;;;;7.25;3.00;;;;;-146.80;100.00;64830.25;5075421;28;45389;-65
2021/07/06 08:44:51;;;;;;;;;6.25;4.50;;;;;-146.80;100.00;64830.25;5074976;28;45582;-63
2021/07/06 08:47:18;;;;;;;;;4.75;2.50;;;;;-146.80;100.00;64830.25;5076611;28;45403;-63
2021/07/06 08:49:47;;;;;;;;;4.25;3.00;;;;;-146.80;100.00;64830.25;5075068;28;47240;-62
2021/07/06 08:52:14;;;;;;;;;6.00;4.00;;;;;-146.80;100.00;64830.25;5076424;27;45434;-64
2021/07/06 08:54:39;;;;;;;;;4.50;4.50;;;;;-146.80;100.00;64830.25;5075073;28;45288;-65
2021/07/06 08:57:06;;;;;;;;;6.00;4.00;;;;;-146.80;100.00;64830.25;5076756;28;45535;-64
2021/07/06 08:59:37;;;;;;;;;4.25;3.25;;;;;-146.80;100.00;64830.25;5076692;28;46370;-65
2021/07/06 09:02:03;;;;;;;;;6.50;3.00;;;;;-146.80;100.00;64830.25;5074539;28;45382;-66
2021/07/06 09:04:50;;;;;;;;;3.00;3.00;;;;;-146.80;100.00;64830.25;5076395;28;45342;-64
2021/07/06 09:07:16;;;;;;;;;7.25;2.50;;;;;-146.80;100.00;64830.25;5076757;28;45533;-61
2021/07/06 09:09:43;;;;;;;;;3.00;3.00;;;;;-146.80;100.00;64830.25;5076324;28;45673;-64
2021/07/06 09:12:11;;;;;;;;;5.00;3.25;;;;;-146.80;100.00;64830.25;5109149;27;46149;-66
2021/07/06 09:14:39;;;;;;;;;3.75;3.75;;;;;-146.80;100.00;64830.25;5076354;28;45304;-65
2021/07/06 09:17:11;;;;;;;;;3.50;2.00;;;;;-146.80;100.00;64830.25;5076481;27;45341;-62
2021/07/06 09:19:37;;;;;;;;;5.50;5.00;;;;;-146.80;100.00;64830.25;5076057;28;45382;-66
2021/07/06 09:22:20;;;;;;;;;3.50;2.25;;;;;-146.80;100.00;64830.25;5075899;28;45367;-66
2021/07/06 09:24:50;;;;;;;;;4.00;4.00;;;;;-146.80;100.00;64830.25;5076199;28;45456;-66
2021/07/06 09:27:28;;;;;;;;;3.75;3.75;;;;;-146.80;100.00;64830.25;5076114;27;45362;-64
2021/07/06 09:30:08;;;;;;;;;8.50;5.75;;;;;-146.80;100.00;64830.25;5075658;28;45353;-63
2021/07/06 09:32:35;;;;;;;;;5.50;4.75;;;;;-146.80;100.00;64830.25;5075768;27;45304;-63
2021/07/06 09:35:14;;;;;;;;;5.75;4.00;;;;;-146.80;100.00;64830.25;5076212;28;45289;-64
2021/07/06 09:37:56;;;;;;;;;3.75;3.50;;;;;-146.80;100.00;64830.25;5076084;27;45397;-65
2021/07/06 09:40:27;;;;;;;;;5.75;5.00;;;;;-146.80;100.00;64830.25;5075426;28;45588;-65
2021/07/06 09:43:12;;;;;;;;;3.75;3.25;;;;;-146.80;100.00;64830.25;5075953;28;45460;-66
2021/07/06 09:45:37;;;;;;;;;3.75;3.75;;;;;-146.80;100.00;64830.25;5076050;28;45296;-66
2021/07/06 09:48:07;;;;;;;;;3.00;3.00;;;;;-146.80;100.00;64830.25;5076187;28;45761;-62
2021/07/06 09:50:33;;;;;;;;;5.50;2.25;;;;;-146.80;100.00;64830.25;5076220;27;45435;-64
2021/07/06 09:53:02;;;;;;;;;3.25;3.25;;;;;-146.80;100.00;64830.25;5075866;28;45817;-65
2021/07/06 09:55:32;;;;;;;;;5.25;2.00;;;;;-146.80;100.00;64830.25;5075959;28;45302;-64
2021/07/06 09:58:04;;;;;;;;;2.00;2.00;;;;;-146.80;100.00;64830.25;5075661;28;45337;-66
2021/07/06 10:00:32;;;;;;;;;2.75;2.00;;;;;-146.80;100.00;64830.25;5075899;27;45370;-65
2021/07/06 10:03:01;;;;;;;;;5.25;5.25;;;;;-146.80;100.00;64830.25;5075506;27;45510;-69
2021/07/06 10:05:29;;;;;;;;;3.50;2.50;;;;;-146.80;100.00;64830.25;5074190;28;45377;-66
2021/07/06 10:07:55;;;;;;;;;3.00;3.00;;;;;-146.80;100.00;64830.25;5074372;28;45944;-66
2021/07/06 10:10:22;;;;;;;;;2.75;2.00;;;;;-146.80;100.00;64830.25;5075356;28;45334;-67
2021/07/06 10:12:49;;;;;;;;;3.00;2.00;;;;;-146.80;100.00;64830.25;5075387;28;45314;-65
2021/07/06 10:15:17;;;;;;;;;2.25;2.00;;;;;-146.80;100.00;64830.25;5076805;28;45405;-66
2021/07/06 10:17:43;;;;;;;;;2.50;2.00;;;;;-146.80;100.00;64830.25;5077757;28;45568;-65
2021/07/06 10:20:20;;;;;;;;;4.00;4.00;;;;;-146.80;100.00;64830.25;5060210;28;47231;-64
2021/07/06 10:22:47;;;;;;;;;2.75;1.00;;;;;-146.80;100.00;64830.25;5078608;28;45415;-65
2021/07/06 10:25:13;;;;;;;;;1.50;1.50;;;;;-146.80;100.00;64830.25;5077214;28;45390;-66
2021/07/06 10:27:45;;;;;;;;;3.25;1.25;;;;;-146.80;100.00;64830.25;5079001;27;45651;-65
2021/07/06 10:30:16;;;;;;;;;5.00;2.75;;;;;-146.80;100.00;64830.25;5079018;28;46480;-65
2021/07/06 10:32:59;;;;;;;;;9.50;8.75;;;;;-146.80;100.00;64830.25;5078527;27;45286;-64
2021/07/06 10:35:37;;;;;;;;;7.75;4.75;;;;;-146.80;100.00;64830.25;5077205;28;45496;-66
2021/07/06 10:38:28;;;;;;;;;4.00;2.50;;;;;-146.80;100.00;64830.25;5077961;28;45193;-67
2021/07/06 10:41:02;;;;;;;;;8.75;3.00;;;;;-146.80;100.00;64830.25;5074450;27;46993;-67
2021/07/06 10:43:42;;;;;;;;;4.50;3.25;;;;;-146.80;100.00;64830.25;5076854;28;46185;-64
2021/07/06 10:46:20;;;;;;;;;3.50;3.25;;;;;-146.80;100.00;64830.25;5076621;27;45456;-62
2021/07/06 10:48:58;;;;;;;;;3.50;3.00;;;;;-146.80;100.00;64830.25;5078512;28;45546;-65
2021/07/06 10:51:42;;;;;;;;;3.00;3.00;;;;;-146.80;100.00;64830.25;5076708;28;46859;-64
2021/07/06 10:54:18;;;;;;;;;4.00;4.00;;;;;-146.80;100.00;64830.25;5076647;28;45807;-63
2021/07/06 10:56:48;;;;;;;;;4.00;2.75;;;;;-146.80;100.00;64830.25;5076539;28;45449;-68
2021/07/06 10:59:20;;;;;;;;;4.50;4.00;;;;;-146.80;100.00;64830.25;5076940;28;45481;-64
2021/07/06 11:01:46;;;;;;;;;3.50;2.25;;;;;-146.80;100.00;64830.25;5076552;28;47743;-65
2021/07/06 11:04:13;;;;;;;;;3.75;3.50;;;;;-146.80;100.00;64830.25;5076446;28;45405;-65
2021/07/06 11:06:47;;;;;;;;;3.50;1.50;;;;;-146.80;100.00;64830.25;5077694;27;45566;-64
2021/07/06 11:09:34;;;;;;;;;4.75;2.00;;;;;-146.80;100.00;64830.25;5077935;27;45308;-66